createdAt,value
2023-03-13T00:03:20.289Z,20.4
2023-03-13T00:08:20.877Z,20.5
2023-03-13T00:13:24.124Z,20.5
2023-03-13T00:18:23.993Z,20.5
2023-03-13T00:23:24.536Z,20.4
2023-03-13T00:28:25.042Z,20.4
2023-03-13T00:33:25.545Z,20.4
2023-03-13T00:38:26.091Z,20.4
2023-03-13T00:43:26.767Z,20.4
2023-03-13T00:48:27.300Z,20.4
2023-03-13T00:53:28.031Z,20.3
2023-03-13T00:58:28.646Z,20.3
2023-03-13T01:03:29.180Z,20.3
2023-03-13T01:08:30.529Z,20.3
2023-03-13T01:13:31.070Z,20.2
2023-03-13T01:18:34.174Z,20.3
2023-03-13T01:23:34.223Z,20.3
2023-03-13T01:28:35.022Z,20.2
2023-03-13T01:33:38.304Z,20.3
2023-03-13T01:38:38.926Z,20.3
2023-03-13T01:43:48.845Z,20.2
2023-03-13T01:48:47.988Z,20.2
2023-03-13T01:53:48.598Z,20.2
2023-03-13T01:58:49.297Z,20.2
2023-03-13T02:03:49.961Z,20.1
2023-03-13T02:08:50.756Z,20.2
2023-03-13T02:13:51.035Z,20.2
2023-03-13T02:18:51.785Z,20.2
2023-03-13T02:23:52.288Z,20.2
2023-03-13T02:28:53.060Z,20.2
2023-03-13T02:33:53.522Z,20.1
2023-03-13T02:38:53.900Z,20.1
2023-03-13T02:43:54.452Z,20.1
2023-03-13T02:48:55.090Z,20.2
2023-03-13T02:53:55.606Z,20.1
2023-03-13T02:58:58.729Z,20
2023-03-13T03:03:58.988Z,20.1
2023-03-13T03:08:59.303Z,20.1
2023-03-13T03:14:02.707Z,19.6
2023-03-13T03:19:02.770Z,20.1
2023-03-13T03:24:03.223Z,20
2023-03-13T03:29:03.728Z,20
2023-03-13T03:34:04.440Z,20
2023-03-13T03:39:05.218Z,20
2023-03-13T03:44:05.800Z,20
2023-03-13T03:49:08.932Z,20
2023-03-13T03:54:11.755Z,20
2023-03-13T03:59:14.505Z,20
2023-03-13T04:04:14.608Z,19.9
2023-03-13T04:09:15.046Z,20
2023-03-13T04:14:15.612Z,20
2023-03-13T04:19:15.961Z,20
2023-03-13T04:24:16.422Z,19.9
2023-03-13T04:29:16.547Z,19.9
2023-03-13T04:34:17.138Z,19.9
2023-03-13T04:39:17.505Z,19.8
2023-03-13T04:44:18.209Z,19.7
2023-03-13T04:49:18.723Z,19.9
2023-03-13T04:54:19.257Z,19.9
2023-03-13T04:59:19.962Z,20
2023-03-13T05:04:20.161Z,20.1
2023-03-13T05:09:20.841Z,20.1
2023-03-13T05:14:21.519Z,20.2
2023-03-13T05:19:22.159Z,20.2
2023-03-13T05:24:25.385Z,20.1
2023-03-13T05:29:25.547Z,20.1
2023-03-13T05:34:28.799Z,20.1
2023-03-13T05:39:28.599Z,20.3
2023-03-13T05:44:39.831Z,20.3
2023-03-13T05:49:41.664Z,20.4
2023-03-13T05:54:41.515Z,20.4
2023-03-13T05:59:41.976Z,20.4
2023-03-13T06:04:42.807Z,20.6
2023-03-13T06:09:43.233Z,20.7
2023-03-13T06:14:43.764Z,20.6
2023-03-13T06:19:44.313Z,20.8
2023-03-13T06:24:44.631Z,20.8
2023-03-13T06:29:45.005Z,20.8
2023-03-13T06:34:45.725Z,20.8
2023-03-13T06:39:46.068Z,21
2023-03-13T06:44:46.580Z,20.9
2023-03-13T06:49:46.754Z,21
2023-03-13T06:54:47.451Z,21.1
2023-03-13T06:59:50.762Z,21.1
2023-03-13T07:04:50.806Z,21.1
2023-03-13T07:09:51.339Z,21.1
2023-03-13T07:14:51.763Z,20.9
2023-03-13T07:19:52.417Z,21.1
2023-03-13T07:24:53.069Z,21
2023-03-13T07:29:53.670Z,21.1
2023-03-13T07:34:54.129Z,21.1
2023-03-13T07:39:54.653Z,21
2023-03-13T07:44:55.373Z,21
2023-03-13T07:49:58.918Z,21
2023-03-13T07:54:59.071Z,21.1
2023-03-13T07:59:59.684Z,21.1
2023-03-13T08:05:00.279Z,21.1
2023-03-13T08:10:00.924Z,21.1
2023-03-13T08:15:01.441Z,21.1
2023-03-13T08:20:02.088Z,21.1
2023-03-13T08:25:02.666Z,21
2023-03-13T08:30:03.120Z,21
2023-03-13T08:35:03.501Z,21
2023-03-13T08:40:04.090Z,20.8
2023-03-13T08:45:04.765Z,20.9
2023-03-13T08:50:05.034Z,20.8
2023-03-13T08:55:05.665Z,20.9
2023-03-13T09:00:06.131Z,20.9
2023-03-13T09:05:06.905Z,20.9
2023-03-13T09:10:07.518Z,20.9
2023-03-13T09:15:10.650Z,20.9
2023-03-13T09:20:10.692Z,20.8
2023-03-13T09:25:11.120Z,20.8
2023-03-13T09:30:11.726Z,20.9
2023-03-13T09:35:12.362Z,20.7
2023-03-13T09:40:15.390Z,20.8
2023-03-13T09:45:15.605Z,20.8
2023-03-13T09:50:16.274Z,20.9
2023-03-13T09:55:16.763Z,20.9
2023-03-13T10:00:17.055Z,20.9
2023-03-13T10:05:17.949Z,20.9
2023-03-13T10:10:18.439Z,21
2023-03-13T10:15:19.049Z,21
2023-03-13T10:20:19.775Z,21
2023-03-13T10:25:20.485Z,20.9
2023-03-13T10:30:21.106Z,20.9
2023-03-13T10:35:21.605Z,20.9
2023-03-13T10:40:22.255Z,20.8
2023-03-13T10:45:25.187Z,20.9
2023-03-13T10:50:26.553Z,20.9
2023-03-13T10:55:26.245Z,20.9
2023-03-13T11:00:26.886Z,20.9
2023-03-13T11:05:27.572Z,21
2023-03-13T11:10:31.824Z,21
2023-03-13T11:15:32.002Z,21.1
2023-03-13T11:20:31.464Z,21.2
2023-03-13T11:25:48.162Z,21.2
2023-03-13T11:30:46.633Z,21.2
2023-03-13T11:35:47.278Z,21.2
2023-03-13T11:40:47.794Z,21.2
2023-03-13T11:45:48.203Z,21.3
2023-03-13T11:50:48.536Z,21.3
2023-03-13T11:55:48.978Z,21.4
2023-03-13T12:00:49.462Z,21.4
2023-03-13T12:05:52.814Z,21.4
2023-03-13T12:10:53.119Z,21.3
2023-03-13T12:15:53.757Z,21.5
2023-03-13T12:20:54.320Z,21.4
2023-03-13T12:25:55.128Z,21.4
2023-03-13T12:30:55.679Z,21.5
2023-03-13T12:35:56.107Z,21.5
2023-03-13T12:40:59.360Z,21.4
2023-03-13T12:45:58.291Z,21.5
2023-03-13T12:51:01.853Z,21.2
2023-03-13T12:56:04.627Z,21.5
2023-03-13T13:01:04.746Z,21.5
2023-03-13T13:06:08.064Z,21.5
2023-03-13T13:11:07.967Z,21.6
2023-03-13T13:16:11.305Z,21.5
2023-03-13T13:21:11.454Z,21.6
2023-03-13T13:31:12.590Z,21.6
2023-03-13T13:36:13.041Z,21.6
2023-03-13T13:41:13.486Z,21.6
2023-03-13T13:46:14.190Z,21.6
2023-03-13T13:51:14.831Z,21.7
2023-03-13T13:56:15.287Z,21.6
2023-03-13T14:01:15.723Z,21.6
2023-03-13T14:06:16.436Z,21.5
2023-03-13T14:11:19.973Z,21.6
2023-03-13T14:16:24.434Z,21.7
2023-03-13T14:21:22.892Z,21.7
2023-03-13T14:26:23.396Z,21.7
2023-03-13T14:31:26.752Z,21.7
2023-03-13T14:36:26.675Z,21.7
2023-03-13T14:41:30.846Z,21.7
2023-03-13T14:46:30.828Z,21.7
2023-03-13T14:51:31.065Z,21.8
2023-03-13T14:56:29.296Z,21.8
2023-03-13T15:01:32.406Z,21.8
2023-03-13T15:06:32.421Z,21.8
2023-03-13T15:11:35.712Z,21.8
2023-03-13T15:16:38.733Z,21.7
2023-03-13T15:21:41.392Z,21.8
2023-03-13T15:26:41.511Z,21.8
2023-03-13T15:31:42.094Z,21.9
2023-03-13T15:36:42.870Z,21.7
2023-03-13T15:41:43.330Z,21.8
2023-03-13T15:46:43.739Z,21.8
2023-03-13T15:51:44.299Z,21.8
2023-03-13T15:56:44.696Z,21.8
2023-03-13T16:01:45.441Z,21.7
2023-03-13T16:06:45.904Z,21.8
2023-03-13T16:11:46.570Z,21.8
2023-03-13T16:16:46.816Z,21.8
2023-03-13T16:21:47.576Z,21.8
2023-03-13T16:26:47.960Z,21.8
2023-03-13T16:31:48.768Z,21.7
2023-03-13T16:36:51.522Z,21.8
2023-03-13T16:41:51.568Z,21.8
2023-03-13T16:47:05.026Z,21.8
2023-03-13T16:51:54.962Z,21.7
2023-03-13T16:56:55.496Z,21.8
2023-03-13T17:01:58.905Z,21.8
2023-03-13T17:06:58.777Z,21.8
2023-03-13T17:11:59.121Z,21.7
2023-03-13T17:16:59.714Z,21.3
2023-03-13T17:22:00.183Z,21.8
2023-03-13T17:27:00.705Z,21.8
2023-03-13T17:32:02.876Z,21.8
2023-03-13T17:37:01.750Z,21.7
2023-03-13T17:42:02.526Z,21.7
2023-03-13T17:47:05.726Z,21.8
2023-03-13T17:52:06.104Z,21.7
2023-03-13T17:57:06.672Z,21.7
2023-03-13T18:02:07.507Z,21.6
2023-03-13T18:07:18.423Z,21.6
2023-03-13T18:12:20.341Z,21.7
2023-03-13T18:17:20.622Z,21.6
2023-03-13T18:22:24.205Z,21.6
2023-03-13T18:27:24.048Z,21.6
2023-03-13T18:32:24.854Z,21.4
2023-03-13T18:37:25.425Z,21.6
2023-03-13T18:42:28.484Z,21.6
2023-03-13T18:47:28.538Z,21.5
2023-03-13T18:52:29.104Z,21.5
2023-03-13T18:57:29.545Z,21.4
2023-03-13T19:02:30.123Z,21.4
2023-03-13T19:07:30.865Z,21.4
2023-03-13T19:12:31.449Z,21.4
2023-03-13T19:17:31.914Z,21.3
2023-03-13T19:22:32.632Z,21.3
2023-03-13T19:27:33.339Z,21.3
2023-03-13T19:32:33.928Z,21.3
2023-03-13T19:37:37.843Z,21.3
2023-03-13T19:42:40.075Z,21.2
2023-03-13T19:47:40.009Z,21.2
2023-03-13T19:52:55.655Z,21.2
2023-03-13T19:57:53.938Z,21.1
2023-03-13T20:02:57.152Z,21.2
2023-03-13T20:07:59.787Z,20.8
2023-03-13T20:12:59.712Z,21.1
2023-03-13T20:18:00.438Z,21.1
2023-03-13T20:23:00.936Z,21.1
2023-03-13T20:28:01.399Z,21
2023-03-13T20:33:04.800Z,21
2023-03-13T20:38:07.508Z,20.9
2023-03-13T20:43:07.449Z,21
2023-03-13T20:48:07.927Z,20.9
2023-03-13T20:53:08.629Z,20.8
2023-03-13T20:58:09.408Z,20.8
2023-03-13T21:03:09.920Z,20.9
2023-03-13T21:08:12.829Z,20.9
2023-03-13T21:13:12.985Z,20.8
2023-03-13T21:18:13.409Z,20.8
2023-03-13T21:23:13.887Z,20.7
2023-03-13T21:28:14.208Z,20.8
2023-03-13T21:33:14.679Z,20.8
2023-03-13T21:38:15.360Z,20.7
2023-03-13T21:43:16.076Z,20.8
2023-03-13T21:48:16.411Z,20.7
2023-03-13T21:53:19.944Z,20.7
2023-03-13T21:58:20.266Z,20.7
2023-03-13T22:03:20.905Z,20.7
2023-03-13T22:08:21.456Z,20.7
2023-03-13T22:13:22.178Z,20.6
2023-03-13T22:18:22.762Z,20.6
2023-03-13T22:23:23.315Z,20.6
2023-03-13T22:28:24.220Z,20.6
2023-03-13T22:33:24.742Z,20.6
2023-03-13T22:38:25.036Z,20.6
2023-03-13T22:43:25.394Z,20.6
2023-03-13T22:48:25.910Z,20.6
2023-03-13T22:53:26.663Z,20.5
2023-03-13T22:58:27.394Z,20.5
2023-03-13T23:03:27.575Z,20.5
2023-03-13T23:08:28.076Z,20.5
2023-03-13T23:13:28.732Z,20.4
2023-03-13T23:18:29.333Z,20.5
2023-03-13T23:23:30.047Z,20.4
2023-03-13T23:28:30.691Z,20.5
2023-03-13T23:33:31.392Z,20.5
2023-03-13T23:38:31.784Z,20.4
2023-03-13T23:43:35.252Z,20.4
2023-03-13T23:48:35.195Z,20.4
2023-03-13T23:53:35.952Z,20.4
2023-03-13T23:58:36.634Z,20.4
